sensor_id;sensor_type;location;lat;lon;timestamp;P1;durP1;ratioP1;P2;durP2;ratioP2
15408;SDS011;7803;48.130;13.788;2023-04-24T00:00:56;10.90;;;9.77;;
15408;SDS011;7803;48.130;13.788;2023-04-24T00:04:00;11.40;;;10.20;;
15408;SDS011;7803;48.130;13.788;2023-04-24T00:07:03;10.55;;;9.45;;
15408;SDS011;7803;48.130;13.788;2023-04-24T00:10:07;11.10;;;9.90;;
15408;SDS011;7803;48.130;13.788;2023-04-24T00:13:10;10.98;;;9.82;;
15408;SDS011;7803;48.130;13.788;2023-04-24T00:16:13;10.70;;;9.70;;
15408;SDS011;7803;48.130;13.788;2023-04-24T00:19:16;11.02;;;9.93;;
15408;SDS011;7803;48.130;13.788;2023-04-24T00:22:21;10.85;;;9.75;;
15408;SDS011;7803;48.130;13.788;2023-04-24T00:25:23;11.15;;;10.05;;
15408;SDS011;7803;48.130;13.788;2023-04-24T00:28:25;11.43;;;10.32;;
15408;SDS011;7803;48.130;13.788;2023-04-24T00:31:27;11.48;;;10.38;;
15408;SDS011;7803;48.130;13.788;2023-04-24T00:34:30;11.63;;;10.52;;
15408;SDS011;7803;48.130;13.788;2023-04-24T00:37:32;11.25;;;9.75;;
15408;SDS011;7803;48.130;13.788;2023-04-24T00:40:34;11.70;;;10.50;;
15408;SDS011;7803;48.130;13.788;2023-04-24T00:43:36;10.38;;;9.27;;
15408;SDS011;7803;48.130;13.788;2023-04-24T00:46:39;9.20;;;8.02;;
15408;SDS011;7803;48.130;13.788;2023-04-24T00:49:42;8.85;;;7.95;;
15408;SDS011;7803;48.130;13.788;2023-04-24T00:52:44;9.32;;;8.38;;
15408;SDS011;7803;48.130;13.788;2023-04-24T00:55:46;9.50;;;8.52;;
15408;SDS011;7803;48.130;13.788;2023-04-24T00:58:48;9.10;;;8.20;;
15408;SDS011;7803;48.130;13.788;2023-04-24T01:01:51;10.02;;;8.95;;
15408;SDS011;7803;48.130;13.788;2023-04-24T01:04:54;9.25;;;8.25;;
15408;SDS011;7803;48.130;13.788;2023-04-24T01:07:57;9.63;;;8.60;;
15408;SDS011;7803;48.130;13.788;2023-04-24T01:11:00;9.40;;;8.50;;
15408;SDS011;7803;48.130;13.788;2023-04-24T01:14:05;9.45;;;8.45;;
15408;SDS011;7803;48.130;13.788;2023-04-24T01:17:08;9.50;;;8.60;;
15408;SDS011;7803;48.130;13.788;2023-04-24T01:20:12;9.35;;;8.35;;
15408;SDS011;7803;48.130;13.788;2023-04-24T01:23:17;9.02;;;8.07;;
15408;SDS011;7803;48.130;13.788;2023-04-24T01:26:19;9.52;;;8.57;;
15408;SDS011;7803;48.130;13.788;2023-04-24T01:29:21;9.80;;;8.60;;
15408;SDS011;7803;48.130;13.788;2023-04-24T01:32:24;9.40;;;8.50;;
15408;SDS011;7803;48.130;13.788;2023-04-24T01:35:26;9.70;;;8.70;;
15408;SDS011;7803;48.130;13.788;2023-04-24T01:38:29;9.07;;;8.18;;
15408;SDS011;7803;48.130;13.788;2023-04-24T01:41:31;9.35;;;8.45;;
15408;SDS011;7803;48.130;13.788;2023-04-24T01:44:34;9.43;;;8.52;;
15408;SDS011;7803;48.130;13.788;2023-04-24T01:47:36;9.63;;;8.65;;
15408;SDS011;7803;48.130;13.788;2023-04-24T01:50:39;9.07;;;8.10;;
15408;SDS011;7803;48.130;13.788;2023-04-24T01:53:42;9.10;;;8.23;;
15408;SDS011;7803;48.130;13.788;2023-04-24T01:56:44;8.88;;;8.02;;
15408;SDS011;7803;48.130;13.788;2023-04-24T01:59:47;9.18;;;8.27;;
15408;SDS011;7803;48.130;13.788;2023-04-24T02:02:49;9.38;;;8.48;;
15408;SDS011;7803;48.130;13.788;2023-04-24T02:05:52;9.07;;;8.18;;
15408;SDS011;7803;48.130;13.788;2023-04-24T02:08:55;9.27;;;8.38;;
15408;SDS011;7803;48.130;13.788;2023-04-24T02:11:57;9.43;;;8.45;;
15408;SDS011;7803;48.130;13.788;2023-04-24T02:15:00;8.75;;;7.70;;
15408;SDS011;7803;48.130;13.788;2023-04-24T02:18:03;9.13;;;8.23;;
15408;SDS011;7803;48.130;13.788;2023-04-24T02:21:06;8.93;;;8.02;;
15408;SDS011;7803;48.130;13.788;2023-04-24T02:24:10;9.35;;;8.45;;
15408;SDS011;7803;48.130;13.788;2023-04-24T02:27:12;8.55;;;7.75;;
15408;SDS011;7803;48.130;13.788;2023-04-24T02:30:14;9.07;;;7.82;;
15408;SDS011;7803;48.130;13.788;2023-04-24T02:33:16;9.20;;;8.30;;
15408;SDS011;7803;48.130;13.788;2023-04-24T02:36:18;8.65;;;7.80;;
15408;SDS011;7803;48.130;13.788;2023-04-24T02:39:22;8.98;;;8.18;;
15408;SDS011;7803;48.130;13.788;2023-04-24T02:42:24;8.80;;;7.93;;
15408;SDS011;7803;48.130;13.788;2023-04-24T02:45:26;8.50;;;7.70;;
15408;SDS011;7803;48.130;13.788;2023-04-24T02:48:28;8.57;;;7.75;;
15408;SDS011;7803;48.130;13.788;2023-04-24T02:51:30;13.48;;;8.00;;
15408;SDS011;7803;48.130;13.788;2023-04-24T02:54:34;9.45;;;7.85;;
15408;SDS011;7803;48.130;13.788;2023-04-24T02:57:36;8.32;;;7.53;;
15408;SDS011;7803;48.130;13.788;2023-04-24T03:00:38;8.32;;;7.53;;
15408;SDS011;7803;48.130;13.788;2023-04-24T03:03:40;8.15;;;7.35;;
15408;SDS011;7803;48.130;13.788;2023-04-24T03:06:42;8.50;;;7.65;;
15408;SDS011;7803;48.130;13.788;2023-04-24T03:09:45;8.13;;;7.32;;
15408;SDS011;7803;48.130;13.788;2023-04-24T03:12:47;8.60;;;7.80;;
15408;SDS011;7803;48.130;13.788;2023-04-24T03:15:49;9.20;;;7.93;;
15408;SDS011;7803;48.130;13.788;2023-04-24T03:18:53;8.15;;;7.35;;
15408;SDS011;7803;48.130;13.788;2023-04-24T03:21:54;8.63;;;7.25;;
15408;SDS011;7803;48.130;13.788;2023-04-24T03:24:58;7.80;;;7.00;;
15408;SDS011;7803;48.130;13.788;2023-04-24T03:28:00;8.32;;;7.45;;
15408;SDS011;7803;48.130;13.788;2023-04-24T03:31:02;9.45;;;7.63;;
15408;SDS011;7803;48.130;13.788;2023-04-24T03:34:04;8.40;;;7.50;;
15408;SDS011;7803;48.130;13.788;2023-04-24T03:37:06;8.70;;;7.32;;
15408;SDS011;7803;48.130;13.788;2023-04-24T03:40:10;7.70;;;6.90;;
15408;SDS011;7803;48.130;13.788;2023-04-24T03:43:12;7.55;;;6.85;;
15408;SDS011;7803;48.130;13.788;2023-04-24T03:46:14;7.40;;;6.70;;
15408;SDS011;7803;48.130;13.788;2023-04-24T03:49:17;7.80;;;7.00;;
15408;SDS011;7803;48.130;13.788;2023-04-24T03:52:19;6.90;;;6.20;;
15408;SDS011;7803;48.130;13.788;2023-04-24T03:55:22;7.32;;;6.63;;
15408;SDS011;7803;48.130;13.788;2023-04-24T03:58:24;8.60;;;6.57;;
15408;SDS011;7803;48.130;13.788;2023-04-24T04:01:26;6.82;;;6.05;;
15408;SDS011;7803;48.130;13.788;2023-04-24T04:04:28;7.70;;;6.93;;
15408;SDS011;7803;48.130;13.788;2023-04-24T04:07:30;8.23;;;7.30;;
15408;SDS011;7803;48.130;13.788;2023-04-24T04:10:33;7.40;;;6.63;;
15408;SDS011;7803;48.130;13.788;2023-04-24T04:13:35;7.45;;;6.50;;
15408;SDS011;7803;48.130;13.788;2023-04-24T04:16:37;6.82;;;6.00;;
15408;SDS011;7803;48.130;13.788;2023-04-24T04:19:39;8.20;;;5.93;;
15408;SDS011;7803;48.130;13.788;2023-04-24T04:22:42;7.47;;;5.95;;
15408;SDS011;7803;48.130;13.788;2023-04-24T04:25:45;6.40;;;5.75;;
15408;SDS011;7803;48.130;13.788;2023-04-24T04:28:48;6.72;;;5.47;;
15408;SDS011;7803;48.130;13.788;2023-04-24T04:31:50;5.53;;;4.40;;
15408;SDS011;7803;48.130;13.788;2023-04-24T04:34:52;8.00;;;4.60;;
15408;SDS011;7803;48.130;13.788;2023-04-24T04:37:54;6.38;;;3.67;;
15408;SDS011;7803;48.130;13.788;2023-04-24T04:41:00;4.82;;;3.72;;
15408;SDS011;7803;48.130;13.788;2023-04-24T04:44:02;6.00;;;3.78;;
15408;SDS011;7803;48.130;13.788;2023-04-24T04:47:05;5.63;;;3.55;;
15408;SDS011;7803;48.130;13.788;2023-04-24T04:50:09;5.38;;;3.35;;
15408;SDS011;7803;48.130;13.788;2023-04-24T04:53:11;5.00;;;3.17;;
15408;SDS011;7803;48.130;13.788;2023-04-24T04:56:15;7.25;;;3.10;;
15408;SDS011;7803;48.130;13.788;2023-04-24T04:59:17;3.53;;;3.00;;
15408;SDS011;7803;48.130;13.788;2023-04-24T05:02:19;5.28;;;2.80;;
15408;SDS011;7803;48.130;13.788;2023-04-24T05:05:21;5.70;;;2.63;;
15408;SDS011;7803;48.130;13.788;2023-04-24T05:08:23;3.65;;;3.20;;
15408;SDS011;7803;48.130;13.788;2023-04-24T05:11:26;5.82;;;2.63;;
15408;SDS011;7803;48.130;13.788;2023-04-24T05:14:28;4.07;;;2.70;;
15408;SDS011;7803;48.130;13.788;2023-04-24T05:17:30;2.50;;;2.30;;
15408;SDS011;7803;48.130;13.788;2023-04-24T05:20:32;2.28;;;1.90;;
15408;SDS011;7803;48.130;13.788;2023-04-24T05:23:34;2.40;;;2.10;;
15408;SDS011;7803;48.130;13.788;2023-04-24T05:26:37;2.42;;;2.20;;
15408;SDS011;7803;48.130;13.788;2023-04-24T05:29:39;2.88;;;2.15;;
15408;SDS011;7803;48.130;13.788;2023-04-24T05:32:41;2.63;;;2.10;;
15408;SDS011;7803;48.130;13.788;2023-04-24T05:35:43;2.45;;;1.90;;
15408;SDS011;7803;48.130;13.788;2023-04-24T05:38:46;2.55;;;1.95;;
15408;SDS011;7803;48.130;13.788;2023-04-24T05:41:50;2.20;;;1.90;;
15408;SDS011;7803;48.130;13.788;2023-04-24T05:44:52;2.83;;;1.90;;
15408;SDS011;7803;48.130;13.788;2023-04-24T05:47:54;2.55;;;2.10;;
15408;SDS011;7803;48.130;13.788;2023-04-24T05:50:56;2.63;;;2.10;;
15408;SDS011;7803;48.130;13.788;2023-04-24T05:53:58;2.58;;;1.90;;
15408;SDS011;7803;48.130;13.788;2023-04-24T05:57:02;2.40;;;2.10;;
15408;SDS011;7803;48.130;13.788;2023-04-24T06:00:08;2.90;;;1.90;;
15408;SDS011;7803;48.130;13.788;2023-04-24T06:03:12;2.80;;;1.90;;
15408;SDS011;7803;48.130;13.788;2023-04-24T06:06:14;3.40;;;2.10;;
15408;SDS011;7803;48.130;13.788;2023-04-24T06:09:16;2.15;;;1.95;;
15408;SDS011;7803;48.130;13.788;2023-04-24T06:12:19;2.22;;;2.00;;
15408;SDS011;7803;48.130;13.788;2023-04-24T06:15:21;2.20;;;2.00;;
15408;SDS011;7803;48.130;13.788;2023-04-24T06:18:23;2.00;;;1.88;;
15408;SDS011;7803;48.130;13.788;2023-04-24T06:21:25;2.10;;;1.90;;
15408;SDS011;7803;48.130;13.788;2023-04-24T06:24:27;2.60;;;2.25;;
15408;SDS011;7803;48.130;13.788;2023-04-24T06:27:31;2.22;;;2.00;;
15408;SDS011;7803;48.130;13.788;2023-04-24T06:30:33;2.65;;;1.98;;
15408;SDS011;7803;48.130;13.788;2023-04-24T06:33:35;2.10;;;1.90;;
15408;SDS011;7803;48.130;13.788;2023-04-24T06:36:37;2.13;;;1.92;;
15408;SDS011;7803;48.130;13.788;2023-04-24T06:39:39;2.30;;;1.70;;
15408;SDS011;7803;48.130;13.788;2023-04-24T06:42:42;2.95;;;2.08;;
15408;SDS011;7803;48.130;13.788;2023-04-24T06:45:44;3.05;;;2.10;;
15408;SDS011;7803;48.130;13.788;2023-04-24T06:48:47;2.10;;;1.90;;
15408;SDS011;7803;48.130;13.788;2023-04-24T06:51:49;2.08;;;1.90;;
15408;SDS011;7803;48.130;13.788;2023-04-24T06:54:51;3.80;;;1.90;;
15408;SDS011;7803;48.130;13.788;2023-04-24T06:57:54;3.38;;;2.08;;
15408;SDS011;7803;48.130;13.788;2023-04-24T07:00:56;2.70;;;2.08;;
15408;SDS011;7803;48.130;13.788;2023-04-24T07:03:58;2.55;;;1.90;;
15408;SDS011;7803;48.130;13.788;2023-04-24T07:07:00;4.78;;;2.00;;
15408;SDS011;7803;48.130;13.788;2023-04-24T07:10:05;5.95;;;2.15;;
15408;SDS011;7803;48.130;13.788;2023-04-24T07:13:10;2.90;;;1.98;;
15408;SDS011;7803;48.130;13.788;2023-04-24T07:16:12;2.95;;;1.90;;
15408;SDS011;7803;48.130;13.788;2023-04-24T07:19:14;4.55;;;1.95;;
15408;SDS011;7803;48.130;13.788;2023-04-24T07:22:16;2.08;;;1.90;;
15408;SDS011;7803;48.130;13.788;2023-04-24T07:25:18;2.20;;;2.00;;
15408;SDS011;7803;48.130;13.788;2023-04-24T07:28:22;4.72;;;2.03;;
15408;SDS011;7803;48.130;13.788;2023-04-24T07:31:24;2.08;;;1.75;;
15408;SDS011;7803;48.130;13.788;2023-04-24T07:34:26;2.25;;;1.90;;
15408;SDS011;7803;48.130;13.788;2023-04-24T07:37:28;2.85;;;1.88;;
15408;SDS011;7803;48.130;13.788;2023-04-24T07:40:30;2.60;;;1.85;;
15408;SDS011;7803;48.130;13.788;2023-04-24T07:43:34;2.42;;;2.00;;
15408;SDS011;7803;48.130;13.788;2023-04-24T07:46:36;3.28;;;1.80;;
15408;SDS011;7803;48.130;13.788;2023-04-24T07:49:38;2.65;;;1.98;;
15408;SDS011;7803;48.130;13.788;2023-04-24T07:52:40;3.10;;;2.15;;
15408;SDS011;7803;48.130;13.788;2023-04-24T07:55:42;2.10;;;1.90;;
15408;SDS011;7803;48.130;13.788;2023-04-24T07:58:45;3.00;;;1.90;;
15408;SDS011;7803;48.130;13.788;2023-04-24T08:01:47;2.00;;;1.80;;
15408;SDS011;7803;48.130;13.788;2023-04-24T08:04:49;2.10;;;1.65;;
15408;SDS011;7803;48.130;13.788;2023-04-24T08:07:51;2.10;;;1.90;;
15408;SDS011;7803;48.130;13.788;2023-04-24T08:10:53;2.53;;;1.60;;
15408;SDS011;7803;48.130;13.788;2023-04-24T08:13:56;2.00;;;1.65;;
15408;SDS011;7803;48.130;13.788;2023-04-24T08:16:59;2.33;;;1.92;;
15408;SDS011;7803;48.130;13.788;2023-04-24T08:20:01;1.80;;;1.70;;
15408;SDS011;7803;48.130;13.788;2023-04-24T08:23:05;1.88;;;1.67;;
15408;SDS011;7803;48.130;13.788;2023-04-24T08:26:07;2.00;;;1.80;;
15408;SDS011;7803;48.130;13.788;2023-04-24T08:29:10;2.35;;;1.70;;
15408;SDS011;7803;48.130;13.788;2023-04-24T08:32:12;3.83;;;1.83;;
15408;SDS011;7803;48.130;13.788;2023-04-24T08:35:14;1.88;;;1.73;;
15408;SDS011;7803;48.130;13.788;2023-04-24T08:38:16;2.40;;;1.88;;
15408;SDS011;7803;48.130;13.788;2023-04-24T08:41:19;2.67;;;1.83;;
15408;SDS011;7803;48.130;13.788;2023-04-24T08:44:22;1.70;;;1.60;;
15408;SDS011;7803;48.130;13.788;2023-04-24T08:47:24;2.00;;;1.80;;
15408;SDS011;7803;48.130;13.788;2023-04-24T08:50:28;1.75;;;1.65;;
15408;SDS011;7803;48.130;13.788;2023-04-24T08:53:32;1.77;;;1.67;;
15408;SDS011;7803;48.130;13.788;2023-04-24T08:56:36;1.67;;;1.58;;
15408;SDS011;7803;48.130;13.788;2023-04-24T08:59:41;2.53;;;1.50;;
15408;SDS011;7803;48.130;13.788;2023-04-24T09:02:44;1.75;;;1.50;;
15408;SDS011;7803;48.130;13.788;2023-04-24T09:05:48;1.77;;;1.60;;
15408;SDS011;7803;48.130;13.788;2023-04-24T09:08:51;1.70;;;1.60;;
15408;SDS011;7803;48.130;13.788;2023-04-24T09:11:56;2.00;;;1.65;;
15408;SDS011;7803;48.130;13.788;2023-04-24T09:15:00;1.60;;;1.50;;
15408;SDS011;7803;48.130;13.788;2023-04-24T09:18:04;2.28;;;1.63;;
15408;SDS011;7803;48.130;13.788;2023-04-24T09:21:07;1.95;;;1.70;;
15408;SDS011;7803;48.130;13.788;2023-04-24T09:24:14;1.65;;;1.55;;
15408;SDS011;7803;48.130;13.788;2023-04-24T09:27:17;1.60;;;1.50;;
15408;SDS011;7803;48.130;13.788;2023-04-24T09:30:22;1.70;;;1.50;;
15408;SDS011;7803;48.130;13.788;2023-04-24T09:33:24;1.65;;;1.50;;
15408;SDS011;7803;48.130;13.788;2023-04-24T09:36:29;1.60;;;1.50;;
15408;SDS011;7803;48.130;13.788;2023-04-24T09:39:33;1.70;;;1.60;;
15408;SDS011;7803;48.130;13.788;2023-04-24T09:42:35;1.60;;;1.50;;
15408;SDS011;7803;48.130;13.788;2023-04-24T09:45:39;1.70;;;1.60;;
15408;SDS011;7803;48.130;13.788;2023-04-24T09:48:41;1.55;;;1.42;;
15408;SDS011;7803;48.130;13.788;2023-04-24T09:51:43;1.70;;;1.60;;
15408;SDS011;7803;48.130;13.788;2023-04-24T09:54:46;1.58;;;1.48;;
15408;SDS011;7803;48.130;13.788;2023-04-24T09:57:56;1.52;;;1.42;;
15408;SDS011;7803;48.130;13.788;2023-04-24T10:01:01;35.15;;;29.10;;
15408;SDS011;7803;48.130;13.788;2023-04-24T10:04:04;97.75;;;82.95;;
15408;SDS011;7803;48.130;13.788;2023-04-24T10:07:06;228.18;;;199.80;;
15408;SDS011;7803;48.130;13.788;2023-04-24T10:10:10;89.38;;;74.60;;
15408;SDS011;7803;48.130;13.788;2023-04-24T10:13:13;52.70;;;42.70;;
15408;SDS011;7803;48.130;13.788;2023-04-24T10:16:17;46.92;;;38.17;;
15408;SDS011;7803;48.130;13.788;2023-04-24T10:19:20;41.65;;;33.38;;
15408;SDS011;7803;48.130;13.788;2023-04-24T10:22:23;42.97;;;35.72;;
15408;SDS011;7803;48.130;13.788;2023-04-24T10:25:27;41.10;;;34.00;;
15408;SDS011;7803;48.130;13.788;2023-04-24T10:28:31;39.42;;;33.47;;
15408;SDS011;7803;48.130;13.788;2023-04-24T10:31:36;39.55;;;32.63;;
15408;SDS011;7803;48.130;13.788;2023-04-24T10:34:38;38.47;;;30.63;;
15408;SDS011;7803;48.130;13.788;2023-04-24T10:37:42;35.15;;;29.13;;
15408;SDS011;7803;48.130;13.788;2023-04-24T10:40:46;36.25;;;29.75;;
15408;SDS011;7803;48.130;13.788;2023-04-24T10:43:48;34.80;;;27.38;;
15408;SDS011;7803;48.130;13.788;2023-04-24T10:47:07;34.63;;;26.83;;
15408;SDS011;7803;48.130;13.788;2023-04-24T10:50:14;26.05;;;20.67;;
15408;SDS011;7803;48.130;13.788;2023-04-24T10:53:17;23.05;;;18.58;;
15408;SDS011;7803;48.130;13.788;2023-04-24T10:56:21;21.30;;;18.00;;
15408;SDS011;7803;48.130;13.788;2023-04-24T10:59:26;19.75;;;15.90;;
15408;SDS011;7803;48.130;13.788;2023-04-24T11:02:36;18.17;;;13.75;;
15408;SDS011;7803;48.130;13.788;2023-04-24T11:05:49;14.07;;;11.40;;
15408;SDS011;7803;48.130;13.788;2023-04-24T11:09:01;11.45;;;9.75;;
15408;SDS011;7803;48.130;13.788;2023-04-24T11:12:06;7.85;;;6.80;;
15408;SDS011;7803;48.130;13.788;2023-04-24T11:15:10;7.80;;;6.18;;
15408;SDS011;7803;48.130;13.788;2023-04-24T11:18:15;5.10;;;4.60;;
15408;SDS011;7803;48.130;13.788;2023-04-24T11:21:17;5.18;;;3.85;;
15408;SDS011;7803;48.130;13.788;2023-04-24T11:24:23;5.28;;;3.50;;
15408;SDS011;7803;48.130;13.788;2023-04-24T11:27:38;3.17;;;2.88;;
15408;SDS011;7803;48.130;13.788;2023-04-24T11:30:41;3.22;;;2.47;;
15408;SDS011;7803;48.130;13.788;2023-04-24T11:33:44;3.13;;;2.53;;
15408;SDS011;7803;48.130;13.788;2023-04-24T11:36:46;3.05;;;1.90;;
15408;SDS011;7803;48.130;13.788;2023-04-24T11:39:50;2.35;;;2.15;;
15408;SDS011;7803;48.130;13.788;2023-04-24T11:42:53;2.13;;;1.35;;
15408;SDS011;7803;48.130;13.788;2023-04-24T11:45:56;1.90;;;1.40;;
15408;SDS011;7803;48.130;13.788;2023-04-24T11:49:02;2.15;;;1.60;;
15408;SDS011;7803;48.130;13.788;2023-04-24T11:52:05;1.75;;;1.35;;
15408;SDS011;7803;48.130;13.788;2023-04-24T11:55:07;2.17;;;1.40;;
15408;SDS011;7803;48.130;13.788;2023-04-24T11:58:23;1.38;;;1.27;;
15408;SDS011;7803;48.130;13.788;2023-04-24T12:01:27;1.50;;;1.40;;
15408;SDS011;7803;48.130;13.788;2023-04-24T12:04:37;3.20;;;1.20;;
15408;SDS011;7803;48.130;13.788;2023-04-24T12:07:40;1.30;;;1.20;;
15408;SDS011;7803;48.130;13.788;2023-04-24T12:10:43;2.15;;;1.35;;
15408;SDS011;7803;48.130;13.788;2023-04-24T12:13:45;1.63;;;1.20;;
15408;SDS011;7803;48.130;13.788;2023-04-24T12:16:47;1.42;;;1.33;;
15408;SDS011;7803;48.130;13.788;2023-04-24T12:19:51;2.05;;;1.25;;
15408;SDS011;7803;48.130;13.788;2023-04-24T12:22:54;1.50;;;1.33;;
15408;SDS011;7803;48.130;13.788;2023-04-24T12:25:59;1.30;;;1.20;;
15408;SDS011;7803;48.130;13.788;2023-04-24T12:29:02;2.53;;;1.20;;
15408;SDS011;7803;48.130;13.788;2023-04-24T12:32:15;2.28;;;1.50;;
15408;SDS011;7803;48.130;13.788;2023-04-24T12:35:20;1.90;;;1.40;;
15408;SDS011;7803;48.130;13.788;2023-04-24T12:38:25;1.60;;;1.50;;
15408;SDS011;7803;48.130;13.788;2023-04-24T12:41:27;2.15;;;1.38;;
15408;SDS011;7803;48.130;13.788;2023-04-24T12:44:32;1.40;;;1.30;;
15408;SDS011;7803;48.130;13.788;2023-04-24T12:47:37;1.40;;;1.30;;
15408;SDS011;7803;48.130;13.788;2023-04-24T12:50:42;1.67;;;1.30;;
15408;SDS011;7803;48.130;13.788;2023-04-24T12:53:44;1.30;;;1.20;;
15408;SDS011;7803;48.130;13.788;2023-04-24T12:56:46;1.50;;;1.40;;
15408;SDS011;7803;48.130;13.788;2023-04-24T12:59:47;2.13;;;1.40;;
15408;SDS011;7803;48.130;13.788;2023-04-24T13:02:50;1.40;;;1.30;;
15408;SDS011;7803;48.130;13.788;2023-04-24T13:05:53;1.70;;;1.50;;
15408;SDS011;7803;48.130;13.788;2023-04-24T13:08:55;1.42;;;1.30;;
15408;SDS011;7803;48.130;13.788;2023-04-24T13:11:58;1.40;;;1.25;;
15408;SDS011;7803;48.130;13.788;2023-04-24T13:15:01;1.50;;;1.30;;
15408;SDS011;7803;48.130;13.788;2023-04-24T13:18:03;2.33;;;1.30;;
15408;SDS011;7803;48.130;13.788;2023-04-24T13:21:07;1.30;;;1.20;;
15408;SDS011;7803;48.130;13.788;2023-04-24T13:24:09;1.35;;;1.25;;
15408;SDS011;7803;48.130;13.788;2023-04-24T13:27:11;1.30;;;1.20;;
15408;SDS011;7803;48.130;13.788;2023-04-24T13:30:13;1.50;;;1.40;;
15408;SDS011;7803;48.130;13.788;2023-04-24T13:33:15;1.40;;;1.30;;
15408;SDS011;7803;48.130;13.788;2023-04-24T13:36:18;1.60;;;1.30;;
15408;SDS011;7803;48.130;13.788;2023-04-24T13:39:20;1.40;;;1.30;;
15408;SDS011;7803;48.130;13.788;2023-04-24T13:42:23;1.45;;;1.20;;
15408;SDS011;7803;48.130;13.788;2023-04-24T13:45:25;1.30;;;1.20;;
15408;SDS011;7803;48.130;13.788;2023-04-24T13:48:27;1.30;;;1.20;;
15408;SDS011;7803;48.130;13.788;2023-04-24T13:51:30;1.38;;;1.27;;
15408;SDS011;7803;48.130;13.788;2023-04-24T13:54:33;1.40;;;1.30;;
15408;SDS011;7803;48.130;13.788;2023-04-24T13:57:35;1.60;;;1.20;;
15408;SDS011;7803;48.130;13.788;2023-04-24T14:00:37;1.73;;;1.38;;
15408;SDS011;7803;48.130;13.788;2023-04-24T14:03:39;1.30;;;1.20;;
15408;SDS011;7803;48.130;13.788;2023-04-24T14:06:44;1.90;;;1.17;;
15408;SDS011;7803;48.130;13.788;2023-04-24T14:09:46;1.25;;;1.15;;
15408;SDS011;7803;48.130;13.788;2023-04-24T14:12:48;1.40;;;1.30;;
15408;SDS011;7803;48.130;13.788;2023-04-24T14:15:50;1.50;;;1.40;;
15408;SDS011;7803;48.130;13.788;2023-04-24T14:18:52;1.42;;;1.33;;
15408;SDS011;7803;48.130;13.788;2023-04-24T14:21:56;1.15;;;1.05;;
15408;SDS011;7803;48.130;13.788;2023-04-24T14:24:58;1.42;;;1.17;;
15408;SDS011;7803;48.130;13.788;2023-04-24T14:28:00;1.85;;;1.42;;
15408;SDS011;7803;48.130;13.788;2023-04-24T14:31:02;1.30;;;1.20;;
15408;SDS011;7803;48.130;13.788;2023-04-24T14:34:04;2.35;;;1.42;;
15408;SDS011;7803;48.130;13.788;2023-04-24T14:37:08;1.98;;;1.50;;
15408;SDS011;7803;48.130;13.788;2023-04-24T14:40:10;2.40;;;1.50;;
15408;SDS011;7803;48.130;13.788;2023-04-24T14:43:12;1.52;;;1.40;;
15408;SDS011;7803;48.130;13.788;2023-04-24T14:46:14;1.40;;;1.30;;
15408;SDS011;7803;48.130;13.788;2023-04-24T14:49:16;1.58;;;1.48;;
15408;SDS011;7803;48.130;13.788;2023-04-24T14:52:20;2.72;;;1.40;;
15408;SDS011;7803;48.130;13.788;2023-04-24T14:55:22;1.45;;;1.35;;
15408;SDS011;7803;48.130;13.788;2023-04-24T14:58:24;1.65;;;1.50;;
15408;SDS011;7803;48.130;13.788;2023-04-24T15:01:26;1.60;;;1.40;;
15408;SDS011;7803;48.130;13.788;2023-04-24T15:04:28;2.60;;;1.60;;
15408;SDS011;7803;48.130;13.788;2023-04-24T15:07:32;1.70;;;1.60;;
15408;SDS011;7803;48.130;13.788;2023-04-24T15:10:35;2.30;;;1.85;;
15408;SDS011;7803;48.130;13.788;2023-04-24T15:13:37;1.42;;;1.33;;
15408;SDS011;7803;48.130;13.788;2023-04-24T15:16:39;3.78;;;1.40;;
15408;SDS011;7803;48.130;13.788;2023-04-24T15:19:42;1.52;;;1.25;;
15408;SDS011;7803;48.130;13.788;2023-04-24T15:22:45;2.40;;;1.50;;
15408;SDS011;7803;48.130;13.788;2023-04-24T15:25:47;1.70;;;1.60;;
15408;SDS011;7803;48.130;13.788;2023-04-24T15:28:49;1.90;;;1.63;;
15408;SDS011;7803;48.130;13.788;2023-04-24T15:31:52;1.75;;;1.60;;
15408;SDS011;7803;48.130;13.788;2023-04-24T15:34:54;2.58;;;1.50;;
15408;SDS011;7803;48.130;13.788;2023-04-24T15:37:57;1.58;;;1.48;;
15408;SDS011;7803;48.130;13.788;2023-04-24T15:40:59;2.05;;;1.60;;
15408;SDS011;7803;48.130;13.788;2023-04-24T15:44:02;1.80;;;1.63;;
15408;SDS011;7803;48.130;13.788;2023-04-24T15:47:04;2.03;;;1.80;;
15408;SDS011;7803;48.130;13.788;2023-04-24T15:50:06;2.05;;;1.70;;
15408;SDS011;7803;48.130;13.788;2023-04-24T15:53:12;1.70;;;1.60;;
15408;SDS011;7803;48.130;13.788;2023-04-24T15:56:21;2.15;;;1.67;;
15408;SDS011;7803;48.130;13.788;2023-04-24T15:59:23;2.53;;;1.75;;
15408;SDS011;7803;48.130;13.788;2023-04-24T16:02:26;1.95;;;1.67;;
15408;SDS011;7803;48.130;13.788;2023-04-24T16:05:28;2.65;;;1.70;;
15408;SDS011;7803;48.130;13.788;2023-04-24T16:08:31;1.85;;;1.58;;
15408;SDS011;7803;48.130;13.788;2023-04-24T16:11:33;1.73;;;1.58;;
15408;SDS011;7803;48.130;13.788;2023-04-24T16:14:38;1.92;;;1.60;;
15408;SDS011;7803;48.130;13.788;2023-04-24T16:17:40;2.83;;;1.92;;
15408;SDS011;7803;48.130;13.788;2023-04-24T16:20:43;2.92;;;1.70;;
15408;SDS011;7803;48.130;13.788;2023-04-24T16:23:46;1.90;;;1.77;;
15408;SDS011;7803;48.130;13.788;2023-04-24T16:26:48;1.77;;;1.55;;
15408;SDS011;7803;48.130;13.788;2023-04-24T16:29:50;1.60;;;1.50;;
15408;SDS011;7803;48.130;13.788;2023-04-24T16:32:53;3.05;;;1.73;;
15408;SDS011;7803;48.130;13.788;2023-04-24T16:35:55;3.60;;;1.70;;
15408;SDS011;7803;48.130;13.788;2023-04-24T16:38:59;3.13;;;1.67;;
15408;SDS011;7803;48.130;13.788;2023-04-24T16:42:01;4.93;;;1.73;;
15408;SDS011;7803;48.130;13.788;2023-04-24T16:45:04;3.47;;;1.88;;
15408;SDS011;7803;48.130;13.788;2023-04-24T16:48:06;2.08;;;1.60;;
15408;SDS011;7803;48.130;13.788;2023-04-24T16:51:10;5.60;;;2.10;;
15408;SDS011;7803;48.130;13.788;2023-04-24T16:54:14;4.28;;;2.25;;
15408;SDS011;7803;48.130;13.788;2023-04-24T16:57:16;3.70;;;2.17;;
15408;SDS011;7803;48.130;13.788;2023-04-24T17:00:19;4.32;;;2.45;;
15408;SDS011;7803;48.130;13.788;2023-04-24T17:03:21;5.07;;;2.78;;
15408;SDS011;7803;48.130;13.788;2023-04-24T17:06:23;4.70;;;2.50;;
15408;SDS011;7803;48.130;13.788;2023-04-24T17:09:30;5.63;;;2.60;;
15408;SDS011;7803;48.130;13.788;2023-04-24T17:12:32;7.35;;;2.92;;
15408;SDS011;7803;48.130;13.788;2023-04-24T17:15:34;7.32;;;3.30;;
15408;SDS011;7803;48.130;13.788;2023-04-24T17:18:36;7.60;;;3.08;;
15408;SDS011;7803;48.130;13.788;2023-04-24T17:21:39;5.85;;;3.28;;
15408;SDS011;7803;48.130;13.788;2023-04-24T17:24:43;7.75;;;3.13;;
15408;SDS011;7803;48.130;13.788;2023-04-24T17:27:47;10.60;;;4.43;;
15408;SDS011;7803;48.130;13.788;2023-04-24T17:30:49;14.98;;;5.03;;
15408;SDS011;7803;48.130;13.788;2023-04-24T17:33:54;11.10;;;4.00;;
15408;SDS011;7803;48.130;13.788;2023-04-24T17:36:58;14.48;;;5.00;;
15408;SDS011;7803;48.130;13.788;2023-04-24T17:40:03;12.63;;;4.60;;
15408;SDS011;7803;48.130;13.788;2023-04-24T17:43:06;12.95;;;4.65;;
15408;SDS011;7803;48.130;13.788;2023-04-24T17:46:09;11.57;;;4.65;;
15408;SDS011;7803;48.130;13.788;2023-04-24T17:49:12;10.90;;;4.72;;
15408;SDS011;7803;48.130;13.788;2023-04-24T17:52:14;11.10;;;4.28;;
15408;SDS011;7803;48.130;13.788;2023-04-24T17:55:18;9.30;;;4.20;;
15408;SDS011;7803;48.130;13.788;2023-04-24T17:58:21;10.88;;;4.63;;
15408;SDS011;7803;48.130;13.788;2023-04-24T18:01:23;11.27;;;4.40;;
15408;SDS011;7803;48.130;13.788;2023-04-24T18:04:25;11.43;;;4.10;;
15408;SDS011;7803;48.130;13.788;2023-04-24T18:07:28;8.68;;;4.15;;
15408;SDS011;7803;48.130;13.788;2023-04-24T18:10:32;10.27;;;4.10;;
15408;SDS011;7803;48.130;13.788;2023-04-24T18:13:36;9.63;;;4.20;;
15408;SDS011;7803;48.130;13.788;2023-04-24T18:16:40;8.20;;;3.53;;
15408;SDS011;7803;48.130;13.788;2023-04-24T18:19:42;8.85;;;3.78;;